Terminal Aerodrome Forecast
Issued by NWS Sioux Falls, SD

Home | Current Version | Previous Version | Graphics & Text | Print | Product List | Glossary On
Versions: 1 2 3 4 5 6 7 8 9 10 11 12 13 14 15 16 17 18 19 20
000
FTUS43 KFSD 252211 AAB
TAFHON
TAF AMD
KHON 252211Z 2522/2618 VRB03KT P6SM SCT025
      TEMPO 2522/2524 BKN025
     FM260200 18006KT P6SM BKN100
     FM260800 26012KT P6SM BKN100
     FM261100 31014G20KT P6SM SKC=

USA.gov is the U.S. government's official web portal to all federal, state and local government web resources and services.